createdAt,value
2019-04-25T00:01:11.572Z,42.50
2019-04-25T00:03:42.564Z,42.42
2019-04-25T00:06:12.577Z,42.47
2019-04-25T00:08:43.059Z,42.56
2019-04-25T00:11:13.059Z,42.61
2019-04-25T00:13:43.226Z,42.54
2019-04-25T00:16:13.080Z,42.40
2019-04-25T00:18:42.848Z,42.42
2019-04-25T00:21:22.665Z,42.47
2019-04-25T00:23:56.112Z,42.57
2019-04-25T00:26:43.224Z,42.55
2019-04-25T00:29:13.211Z,42.52
2019-04-25T00:31:43.717Z,42.51
2019-04-25T00:34:12.903Z,42.47
2019-04-25T00:36:43.532Z,42.53
2019-04-25T00:39:12.543Z,42.55
2019-04-25T00:41:44.344Z,42.55
2019-04-25T00:44:12.392Z,42.58
2019-04-25T00:46:44.798Z,42.44
2019-04-25T00:49:12.317Z,42.46
2019-04-25T00:51:42.573Z,42.50
2019-04-25T00:54:12.049Z,42.46
2019-04-25T00:56:43.292Z,42.46
2019-04-25T00:59:17.401Z,42.52
2019-04-25T01:02:17.828Z,42.53
2019-04-25T01:04:47.224Z,42.62
2019-04-25T01:07:16.415Z,42.47
2019-04-25T01:09:45.717Z,42.40
2019-04-25T01:12:14.918Z,42.53
2019-04-25T01:14:44.261Z,42.59
2019-04-25T01:17:14.240Z,42.52
2019-04-25T01:19:44.924Z,42.41
2019-04-25T01:22:14.447Z,42.47
2019-04-25T01:24:43.947Z,42.52
2019-04-25T01:27:13.560Z,42.44
2019-04-25T01:29:44.405Z,42.43
2019-04-25T01:32:16.706Z,42.52
2019-04-25T01:35:05.231Z,42.45
2019-04-25T01:37:51.109Z,42.42
2019-04-25T01:40:39.502Z,42.42
2019-04-25T01:43:39.574Z,42.38
2019-04-25T01:46:08.768Z,42.38
2019-04-25T01:48:37.875Z,42.38
2019-04-25T01:51:06.841Z,42.43
2019-04-25T01:53:35.936Z,42.36
2019-04-25T01:56:07.597Z,42.30
2019-04-25T01:58:35.442Z,42.23
2019-04-25T02:01:04.666Z,42.18
2019-04-25T02:03:34.253Z,42.17
2019-04-25T02:06:05.074Z,42.27
2019-04-25T02:08:34.449Z,42.19
2019-04-25T02:11:16.444Z,42.12
2019-04-25T02:13:45.479Z,42.20
2019-04-25T02:16:14.466Z,42.27
2019-04-25T02:18:43.643Z,42.21
2019-04-25T02:21:13.727Z,42.24
2019-04-25T02:23:42.159Z,42.35
2019-04-25T02:26:15.937Z,42.27
2019-04-25T02:28:43.315Z,42.24
2019-04-25T02:31:15.366Z,42.24
2019-04-25T02:33:44.251Z,42.05
2019-04-25T02:36:14.461Z,42.20
2019-04-25T02:38:44.258Z,42.20
2019-04-25T02:41:14.808Z,42.17
2019-04-25T02:43:45.009Z,42.15
2019-04-25T02:46:31.861Z,42.19
2019-04-25T02:49:29.966Z,42.12
2019-04-25T02:52:13.100Z,42.14
2019-04-25T02:54:40.411Z,42.14
2019-04-25T02:57:09.334Z,42.05
2019-04-25T02:59:38.193Z,42.14
2019-04-25T03:02:09.093Z,42.25
2019-04-25T03:04:37.770Z,42.15
2019-04-25T03:07:10.532Z,42.07
2019-04-25T03:09:37.486Z,42.07
2019-04-25T03:12:08.106Z,42.05
2019-04-25T03:14:37.129Z,42.03
2019-04-25T03:17:08.656Z,42.00
2019-04-25T03:19:59.894Z,41.98
2019-04-25T03:22:30.516Z,41.97
2019-04-25T03:25:00.261Z,41.91
2019-04-25T03:27:30.247Z,41.86
2019-04-25T03:29:59.748Z,41.85
2019-04-25T03:32:28.714Z,41.72
2019-04-25T03:34:57.899Z,41.89
2019-04-25T03:37:26.793Z,41.81
2019-04-25T03:39:55.854Z,41.78
2019-04-25T03:42:24.757Z,41.83
2019-04-25T03:44:53.922Z,41.82
2019-04-25T03:47:23.554Z,41.82
2019-04-25T03:49:55.101Z,42.02
2019-04-25T03:52:23.894Z,41.78
2019-04-25T03:54:53.433Z,41.79
2019-04-25T03:57:23.245Z,41.72
2019-04-25T03:59:53.639Z,41.64
2019-04-25T04:02:23.364Z,41.60
2019-04-25T04:04:53.766Z,41.62
2019-04-25T04:07:23.774Z,41.58
2019-04-25T04:09:53.308Z,41.66
2019-04-25T04:12:24.319Z,41.57
2019-04-25T04:14:53.815Z,41.58
2019-04-25T04:17:31.031Z,41.46
2019-04-25T04:20:17.517Z,41.58
2019-04-25T04:22:59.414Z,41.67
2019-04-25T04:25:28.441Z,41.65
2019-04-25T04:27:57.496Z,41.60
2019-04-25T04:30:26.593Z,41.50
2019-04-25T04:32:55.489Z,41.50
2019-04-25T04:35:24.605Z,41.48
2019-04-25T04:37:54.195Z,41.50
2019-04-25T04:40:24.274Z,41.46
2019-04-25T04:42:53.360Z,41.50
2019-04-25T04:45:23.245Z,41.57
2019-04-25T04:47:53.338Z,41.46
2019-04-25T04:50:23.280Z,41.54
2019-04-25T04:52:54.023Z,41.41
2019-04-25T04:55:23.307Z,41.39
2019-04-25T04:57:52.244Z,41.39
2019-04-25T05:00:23.183Z,41.36
2019-04-25T05:03:02.295Z,41.40
2019-04-25T05:05:50.266Z,41.47
2019-04-25T05:08:25.013Z,41.55
2019-04-25T05:10:55.046Z,41.47
2019-04-25T05:13:24.674Z,41.57
2019-04-25T05:15:53.685Z,41.58
2019-04-25T05:18:36.593Z,41.58
2019-04-25T05:20:54.296Z,41.56
2019-04-25T05:23:24.793Z,41.54
2019-04-25T05:25:55.658Z,41.51
2019-04-25T05:28:24.696Z,41.58
2019-04-25T05:31:03.801Z,41.04
2019-04-25T05:33:33.802Z,41.33
2019-04-25T05:36:03.750Z,41.80
2019-04-25T05:38:33.416Z,41.92
2019-04-25T05:41:11.458Z,42.54
2019-04-25T05:43:41.316Z,42.27
2019-04-25T05:46:11.348Z,42.88
2019-04-25T05:48:40.372Z,42.77
2019-04-25T05:51:09.446Z,43.29
2019-04-25T05:53:38.515Z,43.45
2019-04-25T05:56:07.443Z,43.27
2019-04-25T05:58:36.398Z,43.22
2019-04-25T06:01:05.596Z,43.37
2019-04-25T06:03:34.491Z,43.57
2019-04-25T06:06:03.548Z,44.12
2019-04-25T06:08:34.229Z,43.85
2019-04-25T06:11:15.980Z,44.24
2019-04-25T06:13:50.326Z,44.33
2019-04-25T06:16:28.283Z,43.66
2019-04-25T06:19:14.021Z,43.30
2019-04-25T06:21:40.622Z,41.62
2019-04-25T06:24:21.390Z,41.29
2019-04-25T06:27:18.136Z,40.55
2019-04-25T06:29:58.148Z,40.25
2019-04-25T06:32:21.459Z,40.14
2019-04-25T06:34:50.683Z,40.20
2019-04-25T06:37:21.209Z,40.19
2019-04-25T06:39:50.478Z,40.19
2019-04-25T06:42:21.032Z,40.95
2019-04-25T06:44:56.689Z,41.44
2019-04-25T06:47:44.269Z,42.05
2019-04-25T06:50:13.691Z,42.05
2019-04-25T06:52:44.210Z,41.66
2019-04-25T06:55:34.287Z,41.43
2019-04-25T06:58:10.121Z,40.61
2019-04-25T07:00:40.531Z,40.45
2019-04-25T07:03:04.688Z,40.33
2019-04-25T07:05:40.006Z,40.03
2019-04-25T07:08:04.205Z,39.40
2019-04-25T07:10:33.890Z,39.61
2019-04-25T07:13:04.310Z,39.47
2019-04-25T07:15:34.112Z,39.20
2019-04-25T07:18:04.287Z,39.11
2019-04-25T07:20:34.574Z,39.29
2019-04-25T07:23:03.881Z,39.38
2019-04-25T07:25:36.628Z,39.49
2019-04-25T07:28:29.765Z,39.44
2019-04-25T07:31:13.305Z,39.54
2019-04-25T07:33:53.500Z,39.42
2019-04-25T07:36:23.313Z,39.27
2019-04-25T07:39:05.176Z,39.34
2019-04-25T07:41:24.197Z,39.17
2019-04-25T07:43:54.018Z,39.32
2019-04-25T07:46:23.482Z,38.98
2019-04-25T07:48:53.545Z,38.41
2019-04-25T07:51:23.717Z,36.61
2019-04-25T07:53:53.435Z,36.09
2019-04-25T07:56:24.074Z,36.43
2019-04-25T07:58:54.759Z,36.26
2019-04-25T08:01:24.128Z,36.66
2019-04-25T08:03:53.741Z,36.84
2019-04-25T08:06:24.251Z,36.92
2019-04-25T08:08:54.600Z,36.69
2019-04-25T08:11:23.814Z,36.59
2019-04-25T08:14:15.764Z,36.29
2019-04-25T08:16:46.427Z,36.09
2019-04-25T08:19:15.297Z,36.33
2019-04-25T08:21:45.164Z,36.60
2019-04-25T08:24:14.264Z,36.94
2019-04-25T08:26:43.679Z,36.70
2019-04-25T08:29:13.306Z,36.74
2019-04-25T08:31:43.876Z,36.67
2019-04-25T08:34:14.507Z,36.81
2019-04-25T08:36:45.758Z,36.77
2019-04-25T08:39:14.765Z,36.95
2019-04-25T08:41:45.594Z,37.07
2019-04-25T08:44:14.704Z,36.73
2019-04-25T08:46:46.955Z,36.45
2019-04-25T08:49:38.744Z,36.10
2019-04-25T08:52:08.049Z,36.29
2019-04-25T08:55:00.766Z,36.51
2019-04-25T08:58:06.655Z,36.94
2019-04-25T09:00:59.081Z,36.57
2019-04-25T09:03:24.260Z,36.88
2019-04-25T09:05:53.606Z,36.91
2019-04-25T09:08:23.982Z,36.74
2019-04-25T09:10:53.460Z,36.62
2019-04-25T09:13:23.512Z,36.62
2019-04-25T09:15:54.055Z,36.69
2019-04-25T09:18:24.065Z,36.72
2019-04-25T09:20:53.963Z,36.40
2019-04-25T09:23:23.680Z,36.67
2019-04-25T09:25:54.325Z,36.71
2019-04-25T09:28:23.927Z,36.76
2019-04-25T09:30:54.064Z,37.17
2019-04-25T09:33:23.281Z,37.36
2019-04-25T09:35:52.107Z,37.61
2019-04-25T09:38:21.126Z,37.55
2019-04-25T09:40:50.106Z,37.28
2019-04-25T09:43:19.342Z,37.22
2019-04-25T09:45:58.082Z,37.46
2019-04-25T09:48:31.718Z,37.78
2019-04-25T09:51:07.474Z,37.91
2019-04-25T09:53:43.445Z,37.93
2019-04-25T09:56:17.663Z,37.63
2019-04-25T09:58:53.747Z,37.22
2019-04-25T10:01:23.965Z,36.87
2019-04-25T10:03:54.380Z,36.84
2019-04-25T10:06:23.423Z,36.89
2019-04-25T10:08:54.130Z,36.69
2019-04-25T10:11:23.792Z,36.78
2019-04-25T10:14:11.511Z,36.64
2019-04-25T10:16:40.417Z,36.23
2019-04-25T10:19:09.541Z,36.14
2019-04-25T10:21:39.544Z,35.91
2019-04-25T10:24:08.572Z,35.56
2019-04-25T10:26:38.634Z,35.07
2019-04-25T10:29:08.411Z,35.56
2019-04-25T10:31:37.455Z,36.06
2019-04-25T10:34:06.441Z,35.55
2019-04-25T10:36:35.438Z,36.09
2019-04-25T10:39:10.649Z,36.18
2019-04-25T10:41:36.550Z,35.01
2019-04-25T10:44:06.084Z,35.14
2019-04-25T10:46:34.992Z,34.86
2019-04-25T10:49:04.479Z,35.23
2019-04-25T10:51:34.265Z,35.38
2019-04-25T10:54:04.138Z,35.57
2019-04-25T10:56:33.532Z,35.10
2019-04-25T10:59:04.234Z,35.15
2019-04-25T11:01:33.915Z,34.83
2019-04-25T11:04:08.113Z,32.65
2019-04-25T11:06:37.002Z,31.62
2019-04-25T11:09:08.748Z,32.03
2019-04-25T11:11:37.587Z,32.81
2019-04-25T11:14:07.598Z,33.39
2019-04-25T11:16:35.918Z,33.62
2019-04-25T11:19:05.372Z,33.92
2019-04-25T11:21:34.223Z,34.21
2019-04-25T11:24:04.074Z,34.29
2019-04-25T11:26:34.542Z,34.40
2019-04-25T11:29:03.677Z,34.61
2019-04-25T11:31:37.192Z,34.62
2019-04-25T11:34:06.565Z,34.57
2019-04-25T11:36:35.695Z,34.36
2019-04-25T11:39:30.625Z,34.75
2019-04-25T11:41:59.775Z,35.02
2019-04-25T11:44:28.772Z,35.12
2019-04-25T11:46:57.640Z,35.16
2019-04-25T11:49:26.665Z,35.05
2019-04-25T11:51:55.788Z,34.94
2019-04-25T11:54:24.866Z,35.12
2019-04-25T11:56:54.715Z,35.15
2019-04-25T11:59:24.427Z,35.46
2019-04-25T12:01:54.782Z,35.11
2019-04-25T12:04:25.347Z,35.22
2019-04-25T12:06:53.471Z,35.35
2019-04-25T12:09:23.983Z,35.36
2019-04-25T12:11:54.464Z,35.67
2019-04-25T12:14:25.190Z,35.78
2019-04-25T12:16:56.123Z,35.88
2019-04-25T12:19:34.973Z,35.94
2019-04-25T12:21:58.093Z,35.80
2019-04-25T12:24:27.203Z,35.39
2019-04-25T12:26:56.372Z,35.33
2019-04-25T12:29:25.478Z,35.31
2019-04-25T12:31:54.916Z,35.00
2019-04-25T12:34:24.335Z,34.76
2019-04-25T12:36:54.487Z,34.97
2019-04-25T12:39:24.278Z,35.22
2019-04-25T12:41:54.391Z,35.24
2019-04-25T12:44:41.635Z,35.36
2019-04-25T12:47:14.063Z,35.39
2019-04-25T12:49:43.771Z,35.55
2019-04-25T12:52:13.145Z,35.46
2019-04-25T12:54:43.987Z,35.54
2019-04-25T12:57:14.171Z,35.54
2019-04-25T12:59:45.177Z,35.65
2019-04-25T13:02:14.401Z,35.70
2019-04-25T13:04:44.282Z,35.85
2019-04-25T13:07:13.770Z,35.91
2019-04-25T13:09:42.695Z,36.00
2019-04-25T13:12:14.614Z,36.15
2019-04-25T13:14:42.799Z,36.25
2019-04-25T13:17:11.805Z,36.23
2019-04-25T13:19:43.999Z,36.28
2019-04-25T13:22:13.313Z,36.35
2019-04-25T13:24:42.275Z,36.45
2019-04-25T13:27:18.163Z,36.51
2019-04-25T13:30:11.827Z,36.56
2019-04-25T13:33:02.582Z,36.65
2019-04-25T13:35:36.346Z,36.72
2019-04-25T13:38:05.346Z,36.79
2019-04-25T13:40:34.286Z,36.87
2019-04-25T13:43:04.916Z,36.78
2019-04-25T13:45:34.356Z,36.77
2019-04-25T13:48:04.900Z,36.85
2019-04-25T13:50:34.389Z,36.90
2019-04-25T13:53:03.597Z,36.87
2019-04-25T13:55:32.599Z,36.84
2019-04-25T13:58:01.646Z,36.61
2019-04-25T14:00:30.902Z,36.61
2019-04-25T14:03:00.055Z,36.83
2019-04-25T14:05:29.210Z,36.45
2019-04-25T14:07:58.078Z,36.62
2019-04-25T14:10:27.852Z,36.33
2019-04-25T14:12:57.029Z,35.71
2019-04-25T14:15:27.456Z,35.77
2019-04-25T14:18:15.509Z,35.94
2019-04-25T14:21:24.784Z,35.77
2019-04-25T14:23:54.143Z,35.45
2019-04-25T14:26:23.129Z,35.51
2019-04-25T14:28:52.087Z,35.57
2019-04-25T14:31:39.131Z,35.40
2019-04-25T14:33:55.808Z,35.67
2019-04-25T14:36:27.132Z,35.74
2019-04-25T14:38:55.489Z,35.70
2019-04-25T14:41:24.595Z,35.71
2019-04-25T14:43:53.649Z,35.77
2019-04-25T14:46:22.850Z,35.70
2019-04-25T14:48:51.742Z,36.08
2019-04-25T14:51:20.696Z,36.02
2019-04-25T14:53:49.895Z,36.03
2019-04-25T14:56:28.636Z,36.28
2019-04-25T14:58:57.493Z,36.07
2019-04-25T15:01:26.472Z,36.21
2019-04-25T15:03:55.314Z,36.41
2019-04-25T15:06:24.473Z,36.32
2019-04-25T15:08:54.265Z,36.33
2019-04-25T15:11:24.437Z,36.55
2019-04-25T15:13:52.570Z,36.55
2019-04-25T15:16:22.362Z,36.59
2019-04-25T15:18:52.264Z,36.52
2019-04-25T15:21:21.296Z,36.70
2019-04-25T15:23:59.935Z,36.68
2019-04-25T15:26:21.185Z,36.48
2019-04-25T15:28:50.206Z,36.31
2019-04-25T15:31:19.110Z,36.37
2019-04-25T15:33:48.256Z,36.47
2019-04-25T15:36:28.656Z,36.17
2019-04-25T15:39:16.458Z,36.14
2019-04-25T15:41:50.482Z,36.34
2019-04-25T15:44:35.311Z,36.43
2019-04-25T15:47:05.870Z,36.43
2019-04-25T15:49:34.904Z,36.31
2019-04-25T15:52:04.473Z,36.49
2019-04-25T15:54:33.896Z,36.59
2019-04-25T15:57:02.916Z,36.55
2019-04-25T15:59:32.783Z,36.62
2019-04-25T16:02:07.890Z,36.55
2019-04-25T16:04:32.693Z,36.63
2019-04-25T16:07:01.586Z,36.58
2019-04-25T16:09:31.894Z,36.63
2019-04-25T16:12:00.864Z,36.52
2019-04-25T16:14:29.654Z,36.65
2019-04-25T16:16:58.541Z,36.69
2019-04-25T16:19:28.210Z,36.53
2019-04-25T16:21:57.652Z,36.62
2019-04-25T16:24:26.696Z,36.57
2019-04-25T16:26:55.764Z,36.65
2019-04-25T16:29:24.681Z,36.78
2019-04-25T16:31:53.725Z,36.84
2019-04-25T16:34:22.854Z,36.83
2019-04-25T16:36:51.963Z,36.25
2019-04-25T16:39:24.125Z,36.64
2019-04-25T16:41:53.009Z,36.95
2019-04-25T16:44:22.572Z,36.89
2019-04-25T16:46:51.650Z,36.79
2019-04-25T16:49:20.484Z,37.02
2019-04-25T16:51:49.590Z,36.99
2019-04-25T16:54:18.706Z,37.14
2019-04-25T16:56:47.598Z,37.12
2019-04-25T16:59:16.836Z,37.17
2019-04-25T17:01:46.346Z,37.03
2019-04-25T17:04:19.748Z,37.07
2019-04-25T17:06:47.854Z,37.08
2019-04-25T17:09:16.844Z,37.13
2019-04-25T17:11:46.104Z,37.39
2019-04-25T17:14:39.720Z,37.39
2019-04-25T17:17:33.716Z,37.33
2019-04-25T17:20:18.264Z,37.26
2019-04-25T17:22:47.309Z,37.24
2019-04-25T17:25:18.394Z,37.22
2019-04-25T17:27:47.444Z,37.33
2019-04-25T17:30:16.553Z,37.26
2019-04-25T17:33:04.569Z,37.58
2019-04-25T17:35:52.739Z,37.73
2019-04-25T17:38:33.550Z,37.77
2019-04-25T17:41:02.496Z,37.86
2019-04-25T17:43:31.994Z,37.95
2019-04-25T17:46:02.041Z,38.01
2019-04-25T17:48:31.868Z,38.05
2019-04-25T17:51:00.862Z,38.12
2019-04-25T17:53:29.791Z,38.15
2019-04-25T17:55:58.875Z,38.20
2019-04-25T17:58:27.812Z,38.27
2019-04-25T18:00:56.961Z,38.35
2019-04-25T18:03:26.359Z,38.41
2019-04-25T18:05:55.276Z,38.45
2019-04-25T18:08:24.230Z,38.50
2019-04-25T18:10:53.100Z,38.52
2019-04-25T18:13:22.069Z,38.56
2019-04-25T18:16:09.938Z,38.56
2019-04-25T18:18:53.989Z,38.58
2019-04-25T18:21:23.103Z,38.63
2019-04-25T18:24:10.939Z,38.66
2019-04-25T18:27:10.827Z,38.61
2019-04-25T18:29:40.096Z,38.67
2019-04-25T18:32:08.983Z,38.75
2019-04-25T18:34:44.414Z,38.75
2019-04-25T18:37:37.196Z,38.54
2019-04-25T18:40:12.802Z,38.61
2019-04-25T18:42:51.378Z,38.54
2019-04-25T18:45:24.836Z,38.69
2019-04-25T18:47:53.860Z,38.77
2019-04-25T18:50:25.450Z,38.85
2019-04-25T18:53:22.333Z,38.86
2019-04-25T18:56:03.129Z,38.81
2019-04-25T18:58:57.025Z,38.96
2019-04-25T19:01:54.265Z,38.99
2019-04-25T19:04:30.274Z,38.96
2019-04-25T19:06:59.279Z,39.02
2019-04-25T19:09:28.649Z,39.12
2019-04-25T19:11:57.557Z,39.13
2019-04-25T19:14:27.278Z,39.18
2019-04-25T19:16:56.547Z,39.20
2019-04-25T19:19:25.454Z,39.12
2019-04-25T19:21:54.348Z,39.11
2019-04-25T19:24:23.549Z,39.15
2019-04-25T19:26:52.620Z,39.12
2019-04-25T19:29:21.651Z,39.21
2019-04-25T19:31:52.065Z,39.25
2019-04-25T19:34:21.414Z,39.31
2019-04-25T19:36:51.208Z,39.51
2019-04-25T19:39:21.714Z,39.58
2019-04-25T19:42:09.651Z,39.69
2019-04-25T19:44:38.710Z,39.79
2019-04-25T19:47:07.710Z,39.83
2019-04-25T19:49:36.703Z,39.90
2019-04-25T19:52:05.638Z,40.00
2019-04-25T19:54:34.735Z,40.08
2019-04-25T19:57:03.816Z,40.14
2019-04-25T19:59:33.018Z,40.15
2019-04-25T20:02:06.593Z,40.20
2019-04-25T20:05:03.860Z,40.24
2019-04-25T20:07:38.096Z,40.22
2019-04-25T20:10:25.147Z,40.31
2019-04-25T20:12:54.983Z,40.35
2019-04-25T20:15:23.906Z,40.39
2019-04-25T20:17:54.104Z,40.48
2019-04-25T20:20:23.123Z,40.50
2019-04-25T20:22:52.395Z,40.57
2019-04-25T20:25:21.382Z,40.64
2019-04-25T20:27:50.807Z,40.71
2019-04-25T20:30:19.913Z,40.76
2019-04-25T20:32:49.250Z,40.79
2019-04-25T20:35:18.379Z,40.85
2019-04-25T20:37:47.542Z,40.93
2019-04-25T20:40:16.429Z,40.99
2019-04-25T20:42:45.556Z,41.00
2019-04-25T20:45:15.926Z,41.03
2019-04-25T20:47:46.582Z,41.08
2019-04-25T20:50:15.736Z,41.15
2019-04-25T20:52:44.744Z,41.17
2019-04-25T20:55:13.969Z,41.20
2019-04-25T20:57:42.887Z,41.22
2019-04-25T21:00:12.123Z,41.30
2019-04-25T21:02:41.114Z,41.33
2019-04-25T21:05:10.198Z,41.35
2019-04-25T21:07:39.042Z,41.35
2019-04-25T21:10:08.193Z,41.41
2019-04-25T21:12:37.153Z,41.40
2019-04-25T21:15:31.219Z,41.46
2019-04-25T21:18:13.683Z,41.36
2019-04-25T21:20:42.658Z,41.55
2019-04-25T21:23:11.686Z,41.56
2019-04-25T21:25:40.697Z,41.46
2019-04-25T21:28:09.732Z,41.42
2019-04-25T21:30:38.601Z,41.45
2019-04-25T21:33:07.628Z,41.41
2019-04-25T21:35:36.775Z,41.38
2019-04-25T21:38:05.723Z,41.21
2019-04-25T21:40:46.957Z,41.08
2019-04-25T21:46:00.891Z,41.09
2019-04-25T21:48:30.293Z,40.83
2019-04-25T21:51:01.922Z,40.79
2019-04-25T21:53:30.847Z,40.88
2019-04-25T21:56:00.148Z,40.90
2019-04-25T21:58:29.287Z,40.91
2019-04-25T22:01:09.525Z,40.86
2019-04-25T22:03:38.520Z,40.82
2019-04-25T22:06:07.830Z,40.89
2019-04-25T22:08:36.837Z,40.84
2019-04-25T22:11:05.685Z,40.89
2019-04-25T22:13:34.862Z,40.98
2019-04-25T22:16:04.155Z,40.93
2019-04-25T22:18:33.441Z,40.91
2019-04-25T22:21:04.224Z,40.98
2019-04-25T22:23:33.474Z,40.99
2019-04-25T22:26:02.973Z,40.99
2019-04-25T22:28:32.260Z,41.19
2019-04-25T22:31:03.511Z,41.16
2019-04-25T22:33:45.613Z,41.20
2019-04-25T22:36:20.260Z,41.29
2019-04-25T22:39:08.689Z,41.30
2019-04-25T22:41:38.568Z,41.31
2019-04-25T22:44:09.069Z,41.32
2019-04-25T22:46:38.441Z,41.38
2019-04-25T22:49:07.718Z,41.38
2019-04-25T22:51:36.790Z,41.32
2019-04-25T22:54:06.178Z,41.34
2019-04-25T22:56:35.122Z,41.42
2019-04-25T22:59:04.925Z,41.43
2019-04-25T23:02:07.751Z,41.48
2019-04-25T23:04:50.536Z,41.46
2019-04-25T23:07:19.441Z,41.53
2019-04-25T23:09:50.432Z,41.44
2019-04-25T23:12:19.719Z,41.42
2019-04-25T23:14:48.729Z,41.47
2019-04-25T23:17:17.692Z,41.42
2019-04-25T23:19:46.773Z,41.53
2019-04-25T23:22:15.842Z,41.62
2019-04-25T23:24:51.058Z,41.53
2019-04-25T23:27:34.833Z,41.47
2019-04-25T23:30:05.697Z,41.52
2019-04-25T23:32:35.568Z,41.63
2019-04-25T23:35:14.784Z,41.61
2019-04-25T23:37:35.158Z,41.60
2019-04-25T23:40:03.961Z,41.54
2019-04-25T23:42:32.936Z,41.53
2019-04-25T23:45:02.419Z,41.60
2019-04-25T23:47:31.412Z,41.65
2019-04-25T23:50:00.426Z,41.67
2019-04-25T23:52:29.486Z,41.54
2019-04-25T23:54:58.478Z,41.57
2019-04-25T23:57:27.471Z,41.52
2019-04-25T23:59:56.462Z,41.56
